createdAt,value
2022-10-13T00:01:19.600Z,7.60
2022-10-13T00:03:47.291Z,6.53
2022-10-13T00:06:18.922Z,6.78
2022-10-13T00:11:21.779Z,6.88
2022-10-13T00:13:50.056Z,7.65
2022-10-13T00:16:20.551Z,7.18
2022-10-13T00:18:48.797Z,7.50
2022-10-13T00:21:20.593Z,7.22
2022-10-13T00:23:50.657Z,6.93
2022-10-13T00:26:19.073Z,7.57
2022-10-13T00:28:51.300Z,7.13
2022-10-13T00:31:21.216Z,7.20
2022-10-13T00:33:53.172Z,7.93
2022-10-13T00:36:22.018Z,6.93
2022-10-13T00:38:51.806Z,6.45
2022-10-13T00:41:21.822Z,7.22
2022-10-13T00:44:02.172Z,6.63
2022-10-13T00:46:36.029Z,7.20
2022-10-13T00:49:13.466Z,7.43
2022-10-13T00:51:45.832Z,7.28
2022-10-13T00:54:22.941Z,7.25
2022-10-13T00:56:53.896Z,7.03
2022-10-13T00:59:27.453Z,7.63
2022-10-13T01:02:00.409Z,7.38
2022-10-13T01:04:38.237Z,7.57
2022-10-13T01:07:06.657Z,6.47
2022-10-13T01:09:37.908Z,7.13
2022-10-13T01:12:25.900Z,7.57
2022-10-13T01:15:23.552Z,6.43
2022-10-13T01:18:21.825Z,6.55
2022-10-13T01:21:28.061Z,7.20
2022-10-13T01:24:28.337Z,6.13
2022-10-13T01:27:23.879Z,6.28
2022-10-13T01:30:06.857Z,5.97
2022-10-13T01:32:58.680Z,6.22
2022-10-13T01:38:48.242Z,5.72
2022-10-13T01:41:32.511Z,6.18
2022-10-13T01:44:29.454Z,6.22
2022-10-13T01:46:57.031Z,6.15
2022-10-13T01:49:34.993Z,5.95
2022-10-13T01:52:14.162Z,6.07
2022-10-13T01:54:43.226Z,6.40
2022-10-13T01:57:37.959Z,6.05
2022-10-13T02:00:16.608Z,5.75
2022-10-13T02:03:11.507Z,5.93
2022-10-13T02:05:56.165Z,7.40
2022-10-13T02:08:33.022Z,6.90
2022-10-13T02:11:22.250Z,6.63
2022-10-13T02:14:12.741Z,6.70
2022-10-13T02:16:44.777Z,6.82
2022-10-13T02:19:18.550Z,7.68
2022-10-13T02:21:48.418Z,6.85
2022-10-13T02:24:15.684Z,7.43
2022-10-13T02:26:42.999Z,8.00
2022-10-13T02:29:17.350Z,7.28
2022-10-13T02:31:48.192Z,7.10
2022-10-13T02:34:18.474Z,7.22
2022-10-13T02:36:45.451Z,7.03
2022-10-13T02:39:14.643Z,6.22
2022-10-13T02:41:41.450Z,6.93
2022-10-13T02:44:12.870Z,6.22
2022-10-13T02:46:39.725Z,7.22
2022-10-13T02:49:09.061Z,6.50
2022-10-13T02:51:39.920Z,6.78
2022-10-13T02:54:08.051Z,6.35
2022-10-13T02:56:37.270Z,5.63
2022-10-13T02:59:08.878Z,6.03
2022-10-13T03:01:41.378Z,7.22
2022-10-13T03:04:12.113Z,7.00
2022-10-13T03:06:41.150Z,4.93
2022-10-13T03:09:07.991Z,6.32
2022-10-13T03:11:37.241Z,6.20
2022-10-13T03:14:04.127Z,6.20
2022-10-13T03:16:30.965Z,6.18
2022-10-13T03:19:02.445Z,7.20
2022-10-13T03:23:58.221Z,5.78
2022-10-13T03:26:27.525Z,6.75
2022-10-13T03:28:54.525Z,6.55
2022-10-13T03:31:21.432Z,6.13
2022-10-13T03:33:51.550Z,6.43
2022-10-13T03:36:20.998Z,5.07
2022-10-13T03:38:50.150Z,5.85
2022-10-13T03:41:18.813Z,5.90
2022-10-13T03:43:45.806Z,6.82
2022-10-13T03:46:15.806Z,6.47
2022-10-13T03:48:42.713Z,6.07
2022-10-13T03:51:12.788Z,5.28
2022-10-13T03:53:39.772Z,5.10
2022-10-13T03:56:13.021Z,6.00
2022-10-13T03:58:44.444Z,6.00
2022-10-13T04:01:14.249Z,5.88
2022-10-13T04:03:43.496Z,6.32
2022-10-13T04:06:15.422Z,5.80
2022-10-13T04:08:44.546Z,6.07
2022-10-13T04:11:15.757Z,6.15
2022-10-13T04:13:43.473Z,6.30
2022-10-13T04:16:21.983Z,6.13
2022-10-13T04:19:04.674Z,5.18
2022-10-13T04:21:36.174Z,5.18
2022-10-13T04:26:38.131Z,6.18
2022-10-13T04:29:08.533Z,6.20
2022-10-13T04:31:36.096Z,6.15
2022-10-13T04:34:03.464Z,5.35
2022-10-13T04:36:30.358Z,6.30
2022-10-13T04:38:57.528Z,6.32
2022-10-13T04:41:25.798Z,5.60
2022-10-13T04:43:53.828Z,5.63
2022-10-13T04:46:26.768Z,6.07
2022-10-13T04:48:55.459Z,5.72
2022-10-13T04:51:26.374Z,5.43
2022-10-13T04:54:02.395Z,4.75
2022-10-13T04:56:33.958Z,5.10
2022-10-13T05:01:33.256Z,4.97
2022-10-13T05:04:03.458Z,4.40
2022-10-13T05:06:48.612Z,4.97
2022-10-13T05:09:23.703Z,5.45
2022-10-13T05:11:55.214Z,5.38
2022-10-13T05:16:51.746Z,4.88
2022-10-13T05:19:18.705Z,5.30
2022-10-13T05:21:45.619Z,5.25
2022-10-13T05:24:13.772Z,5.63
2022-10-13T05:26:40.724Z,5.82
2022-10-13T05:29:07.870Z,4.93
2022-10-13T05:31:38.719Z,6.53
2022-10-13T05:34:05.570Z,6.32
2022-10-13T05:36:37.491Z,6.93
2022-10-13T05:39:09.821Z,6.90
2022-10-13T05:41:39.512Z,6.03
2022-10-13T05:44:09.817Z,5.18
2022-10-13T05:46:36.930Z,5.70
2022-10-13T05:49:06.499Z,5.57
2022-10-13T05:51:45.306Z,7.03
2022-10-13T05:54:36.846Z,5.55
2022-10-13T05:57:21.041Z,6.13
2022-10-13T06:00:12.869Z,6.68
2022-10-13T06:05:26.843Z,5.80
2022-10-13T06:07:58.153Z,6.70
2022-10-13T06:10:28.448Z,4.85
2022-10-13T06:12:55.408Z,6.03
2022-10-13T06:15:28.211Z,6.18
2022-10-13T06:17:57.867Z,6.65
2022-10-13T06:20:26.663Z,6.47
2022-10-13T06:22:56.807Z,5.35
2022-10-13T06:25:26.170Z,6.43
2022-10-13T06:27:53.198Z,6.18
2022-10-13T06:30:20.105Z,5.35
2022-10-13T06:32:47.081Z,6.15
2022-10-13T06:35:14.670Z,6.78
2022-10-13T06:37:41.875Z,6.45
2022-10-13T06:40:11.882Z,6.43
2022-10-13T06:42:40.913Z,7.72
2022-10-13T06:45:08.689Z,7.00
2022-10-13T06:47:35.773Z,7.30
2022-10-13T06:50:02.739Z,8.13
2022-10-13T06:52:29.714Z,7.57
2022-10-13T06:54:56.637Z,7.97
2022-10-13T06:57:26.671Z,7.63
2022-10-13T06:59:53.523Z,7.68
2022-10-13T07:02:20.689Z,7.20
2022-10-13T07:04:48.142Z,7.22
2022-10-13T07:07:19.908Z,8.23
2022-10-13T07:09:49.457Z,7.90
2022-10-13T07:12:19.648Z,7.95
2022-10-13T07:14:47.484Z,7.82
2022-10-13T07:17:15.166Z,5.72
2022-10-13T07:19:42.019Z,8.68
2022-10-13T07:22:09.134Z,8.63
2022-10-13T07:24:36.228Z,8.88
2022-10-13T07:27:07.603Z,8.00
2022-10-13T07:29:34.933Z,9.35
2022-10-13T07:32:02.280Z,8.05
2022-10-13T07:34:31.500Z,9.07
2022-10-13T07:36:59.980Z,8.73
2022-10-13T07:39:29.242Z,9.50
2022-10-13T07:41:58.387Z,9.02
2022-10-13T07:44:25.609Z,9.20
2022-10-13T07:46:52.596Z,9.85
2022-10-13T07:49:20.239Z,9.05
2022-10-13T07:51:48.425Z,9.48
2022-10-13T07:54:15.504Z,10.15
2022-10-13T07:56:42.381Z,8.63
2022-10-13T07:59:12.791Z,8.27
2022-10-13T08:01:41.192Z,8.55
2022-10-13T08:04:08.297Z,8.43
2022-10-13T08:06:35.836Z,8.85
2022-10-13T08:09:05.970Z,9.10
2022-10-13T08:11:35.858Z,8.55
2022-10-13T08:14:04.010Z,8.45
2022-10-13T08:16:34.447Z,7.82
2022-10-13T08:19:05.073Z,8.20
2022-10-13T08:24:24.678Z,7.65
2022-10-13T08:26:51.917Z,7.68
2022-10-13T08:29:23.066Z,7.03
2022-10-13T08:31:53.472Z,8.15
2022-10-13T08:34:22.293Z,7.90
2022-10-13T08:36:53.044Z,8.00
2022-10-13T08:39:21.736Z,8.10
2022-10-13T08:41:48.835Z,8.20
2022-10-13T08:45:06.242Z,7.80
2022-10-13T08:47:27.189Z,8.20
2022-10-13T08:50:05.183Z,8.02
2022-10-13T08:53:01.830Z,8.00
2022-10-13T08:55:34.681Z,7.15
2022-10-13T08:58:09.956Z,6.90
2022-10-13T09:00:38.959Z,7.45
2022-10-13T09:03:24.958Z,6.95
2022-10-13T09:06:07.294Z,6.93
2022-10-13T09:08:42.326Z,7.47
2022-10-13T09:11:12.510Z,7.07
2022-10-13T09:13:40.305Z,7.07
2022-10-13T09:16:07.896Z,7.47
2022-10-13T09:18:35.591Z,7.05
2022-10-13T09:21:20.929Z,6.75
2022-10-13T09:23:54.341Z,6.75
2022-10-13T09:26:25.142Z,6.78
2022-10-13T09:28:55.630Z,6.80
2022-10-13T09:31:29.038Z,7.13
2022-10-13T09:34:13.951Z,6.78
2022-10-13T09:36:56.869Z,5.60
2022-10-13T09:39:27.622Z,5.60
2022-10-13T09:42:20.915Z,6.88
2022-10-13T09:44:58.322Z,6.80
2022-10-13T09:47:27.257Z,6.35
2022-10-13T09:50:16.423Z,6.50
2022-10-13T09:52:46.760Z,6.78
2022-10-13T09:55:36.594Z,7.10
2022-10-13T09:58:14.926Z,6.80
2022-10-13T10:00:47.454Z,7.28
2022-10-13T10:03:31.986Z,7.88
2022-10-13T10:06:13.859Z,6.75
2022-10-13T10:09:33.412Z,7.47
2022-10-13T10:12:03.795Z,6.50
2022-10-13T10:14:38.159Z,7.18
2022-10-13T10:17:23.477Z,7.38
2022-10-13T10:20:41.229Z,7.25
2022-10-13T10:23:36.059Z,6.40
2022-10-13T10:26:13.539Z,6.28
2022-10-13T10:28:59.407Z,6.45
2022-10-13T10:31:41.227Z,7.03
2022-10-13T10:34:26.204Z,6.78
2022-10-13T10:37:11.388Z,6.57
2022-10-13T10:39:46.826Z,7.47
2022-10-13T10:42:48.442Z,6.78
2022-10-13T10:45:27.059Z,6.13
2022-10-13T10:48:18.802Z,6.10
2022-10-13T10:53:31.489Z,6.55
2022-10-13T10:56:28.812Z,7.32
2022-10-13T10:59:04.604Z,7.38
2022-10-13T11:01:52.360Z,7.60
2022-10-13T11:04:46.525Z,7.95
2022-10-13T11:07:23.728Z,6.78
2022-10-13T11:09:54.072Z,7.35
2022-10-13T11:12:21.484Z,7.68
2022-10-13T11:14:54.910Z,7.90
2022-10-13T11:17:37.967Z,7.72
2022-10-13T11:20:20.334Z,7.55
2022-10-13T11:22:59.884Z,7.20
2022-10-13T11:25:46.301Z,7.30
2022-10-13T11:28:43.083Z,7.47
2022-10-13T11:31:24.885Z,7.30
2022-10-13T11:34:00.244Z,6.85
2022-10-13T11:36:56.690Z,7.93
2022-10-13T11:42:47.696Z,7.97
2022-10-13T11:45:43.567Z,6.80
2022-10-13T11:49:03.331Z,6.20
2022-10-13T11:52:50.713Z,7.15
2022-10-13T11:55:50.593Z,6.55
2022-10-13T11:58:26.550Z,6.05
2022-10-13T12:01:06.937Z,6.63
2022-10-13T12:03:41.062Z,6.18
2022-10-13T12:06:35.734Z,6.55
2022-10-13T12:09:21.188Z,5.88
2022-10-13T12:12:21.796Z,5.68
2022-10-13T12:14:55.780Z,4.85
2022-10-13T12:17:32.041Z,5.35
2022-10-13T12:20:16.591Z,5.38
2022-10-13T12:22:54.702Z,4.93
2022-10-13T12:25:26.003Z,4.90
2022-10-13T12:28:00.198Z,4.80
2022-10-13T12:30:37.327Z,4.60
2022-10-13T12:33:28.252Z,5.65
2022-10-13T12:35:55.686Z,4.95
2022-10-13T12:38:23.541Z,4.85
2022-10-13T12:40:53.693Z,5.22
2022-10-13T12:43:26.687Z,5.57
2022-10-13T12:46:03.669Z,5.03
2022-10-13T12:48:36.038Z,4.82
2022-10-13T12:51:21.955Z,4.65
2022-10-13T12:53:49.375Z,4.85
2022-10-13T12:56:29.612Z,5.82
2022-10-13T12:58:56.950Z,5.90
2022-10-13T13:01:36.101Z,5.85
2022-10-13T13:04:30.289Z,4.95
2022-10-13T13:07:03.595Z,5.80
2022-10-13T13:09:37.050Z,6.47
2022-10-13T13:12:13.175Z,6.05
2022-10-13T13:14:49.281Z,6.65
2022-10-13T13:18:22.082Z,6.07
2022-10-13T13:24:35.706Z,6.20
2022-10-13T13:27:28.136Z,5.90
2022-10-13T13:29:55.950Z,5.68
2022-10-13T13:32:28.885Z,5.88
2022-10-13T13:34:55.989Z,7.00
2022-10-13T13:37:28.576Z,6.20
2022-10-13T13:40:01.292Z,5.72
2022-10-13T13:42:28.889Z,5.68
2022-10-13T13:44:56.549Z,6.32
2022-10-13T13:47:26.624Z,5.75
2022-10-13T13:49:56.209Z,4.95
2022-10-13T13:52:25.724Z,5.88
2022-10-13T13:54:56.196Z,5.93
2022-10-13T13:57:23.245Z,5.93
2022-10-13T13:59:51.169Z,6.22
2022-10-13T14:02:24.185Z,6.28
2022-10-13T14:04:51.390Z,5.82
2022-10-13T14:07:18.568Z,5.93
2022-10-13T14:09:48.415Z,6.65
2022-10-13T14:12:15.313Z,6.10
2022-10-13T14:14:42.478Z,6.90
2022-10-13T14:17:09.713Z,6.57
2022-10-13T14:19:37.060Z,6.50
2022-10-13T14:22:19.986Z,6.82
2022-10-13T14:24:47.507Z,6.00
2022-10-13T14:27:14.835Z,6.20
2022-10-13T14:29:44.140Z,5.55
2022-10-13T14:32:13.680Z,5.13
2022-10-13T14:34:44.893Z,5.63
2022-10-13T14:37:11.842Z,5.75
2022-10-13T14:39:39.304Z,5.80
2022-10-13T14:42:06.157Z,5.65
2022-10-13T14:44:35.101Z,5.78
2022-10-13T14:47:04.549Z,5.60
2022-10-13T14:49:31.630Z,5.88
2022-10-13T14:51:58.629Z,5.95
2022-10-13T14:54:30.080Z,5.55
2022-10-13T14:59:27.961Z,4.35
2022-10-13T15:01:54.984Z,4.50
2022-10-13T15:04:24.327Z,4.75
2022-10-13T15:06:53.269Z,5.05
2022-10-13T15:09:25.506Z,4.55
2022-10-13T15:12:00.570Z,4.80
2022-10-13T15:14:27.451Z,4.40
2022-10-13T15:16:58.935Z,5.03
2022-10-13T15:21:54.989Z,5.10
2022-10-13T15:24:21.920Z,4.97
2022-10-13T15:26:48.786Z,5.00
2022-10-13T15:29:15.639Z,5.03
2022-10-13T15:31:42.485Z,4.90
2022-10-13T15:34:09.353Z,5.95
2022-10-13T15:36:36.359Z,5.30
2022-10-13T15:39:03.242Z,4.90
2022-10-13T15:41:32.749Z,5.50
2022-10-13T15:43:59.588Z,5.70
2022-10-13T15:46:28.603Z,4.80
2022-10-13T15:48:59.934Z,5.18
2022-10-13T15:51:27.083Z,5.57
2022-10-13T15:53:56.508Z,5.35
2022-10-13T15:56:23.500Z,5.13
2022-10-13T15:58:52.549Z,5.20
2022-10-13T16:01:19.506Z,4.13
2022-10-13T16:03:46.555Z,5.65
2022-10-13T16:06:14.382Z,5.18
2022-10-13T16:08:45.772Z,5.35
2022-10-13T16:11:16.181Z,5.35
2022-10-13T16:13:47.504Z,5.57
2022-10-13T16:16:14.965Z,5.68
2022-10-13T16:18:42.670Z,5.03
2022-10-13T16:21:19.223Z,5.88
2022-10-13T16:23:47.653Z,6.18
2022-10-13T16:26:17.220Z,6.25
2022-10-13T16:28:47.114Z,5.97
2022-10-13T16:31:17.767Z,5.47
2022-10-13T16:33:45.623Z,4.57
2022-10-13T16:36:18.102Z,4.45
2022-10-13T16:38:48.075Z,4.63
2022-10-13T16:41:21.257Z,4.93
2022-10-13T16:43:48.736Z,4.95
2022-10-13T16:46:19.521Z,4.28
2022-10-13T16:48:47.748Z,4.95
2022-10-13T16:51:21.520Z,4.60
2022-10-13T16:53:59.964Z,4.53
2022-10-13T16:56:31.549Z,4.70
2022-10-13T16:59:09.587Z,4.38
2022-10-13T17:01:37.121Z,4.72
2022-10-13T17:04:04.917Z,4.63
2022-10-13T17:06:32.382Z,5.10
2022-10-13T17:09:02.865Z,5.30
2022-10-13T17:11:33.040Z,5.25
2022-10-13T17:14:01.137Z,5.20
2022-10-13T17:16:28.826Z,5.03
2022-10-13T17:19:01.510Z,4.80
2022-10-13T17:21:28.702Z,4.68
2022-10-13T17:23:57.948Z,5.15
2022-10-13T17:26:24.867Z,5.68
2022-10-13T17:28:54.119Z,5.32
2022-10-13T17:31:23.469Z,5.18
2022-10-13T17:33:51.991Z,5.00
2022-10-13T17:36:28.861Z,4.57
2022-10-13T17:38:56.928Z,4.45
2022-10-13T17:41:24.674Z,4.63
2022-10-13T17:43:52.273Z,4.63
2022-10-13T17:46:36.310Z,4.70
2022-10-13T17:49:10.330Z,4.95
2022-10-13T17:51:39.489Z,5.55
2022-10-13T17:54:14.435Z,5.68
2022-10-13T17:56:42.453Z,5.15
2022-10-13T17:59:09.922Z,5.43
2022-10-13T18:01:37.235Z,6.18
2022-10-13T18:04:19.537Z,5.90
2022-10-13T18:06:47.158Z,6.13
2022-10-13T18:09:20.181Z,5.18
2022-10-13T18:11:51.221Z,5.13
2022-10-13T18:14:25.486Z,4.85
2022-10-13T18:16:53.961Z,4.93
2022-10-13T18:19:22.008Z,5.05
2022-10-13T18:21:49.690Z,4.47
2022-10-13T18:24:19.634Z,5.13
2022-10-13T18:26:46.645Z,4.18
2022-10-13T18:29:13.768Z,4.90
2022-10-13T18:31:41.723Z,4.68
2022-10-13T18:34:15.204Z,4.45
2022-10-13T18:36:50.744Z,4.75
2022-10-13T18:39:21.414Z,4.13
2022-10-13T18:41:50.062Z,3.60
2022-10-13T18:44:22.173Z,3.65
2022-10-13T18:46:51.589Z,4.97
2022-10-13T18:49:22.944Z,4.90
2022-10-13T18:51:51.652Z,3.67
2022-10-13T18:54:18.727Z,4.72
2022-10-13T18:56:47.899Z,4.82
2022-10-13T18:59:14.866Z,5.15
2022-10-13T19:01:42.974Z,5.30
2022-10-13T19:04:14.641Z,5.07
2022-10-13T19:06:41.612Z,4.45
2022-10-13T19:09:12.852Z,5.32
2022-10-13T19:11:43.370Z,5.65
2022-10-13T19:14:13.277Z,5.70
2022-10-13T19:16:46.392Z,5.10
2022-10-13T19:19:15.902Z,5.15
2022-10-13T19:21:42.923Z,5.47
2022-10-13T19:24:10.634Z,5.18
2022-10-13T19:26:37.848Z,5.35
2022-10-13T19:29:11.440Z,6.00
2022-10-13T19:31:39.960Z,5.03
2022-10-13T19:34:07.991Z,4.78
2022-10-13T19:36:42.072Z,5.22
2022-10-13T19:39:22.834Z,3.88
2022-10-13T19:41:55.554Z,4.13
2022-10-13T19:44:24.774Z,3.78
2022-10-13T19:46:56.549Z,4.22
2022-10-13T19:49:26.378Z,3.97
2022-10-13T19:51:58.205Z,3.80
2022-10-13T19:54:33.641Z,3.33
2022-10-13T19:57:01.139Z,4.32
2022-10-13T19:59:28.208Z,4.35
2022-10-13T20:01:56.648Z,4.13
2022-10-13T20:04:26.366Z,3.97
2022-10-13T20:06:53.805Z,3.72
2022-10-13T20:09:23.599Z,5.00
2022-10-13T20:11:51.745Z,4.10
2022-10-13T20:14:22.890Z,4.38
2022-10-13T20:16:52.077Z,4.78
2022-10-13T20:19:21.750Z,5.18
2022-10-13T20:21:51.443Z,4.45
2022-10-13T20:24:23.168Z,3.80
2022-10-13T20:26:52.669Z,3.65
2022-10-13T20:29:19.549Z,3.58
2022-10-13T20:31:46.673Z,4.35
2022-10-13T20:34:13.638Z,3.88
2022-10-13T20:36:43.372Z,3.83
2022-10-13T20:39:13.621Z,3.53
2022-10-13T20:41:40.849Z,3.25
2022-10-13T20:44:09.237Z,3.58
2022-10-13T20:46:36.097Z,3.33
2022-10-13T20:49:11.034Z,3.85
2022-10-13T20:51:39.307Z,3.20
2022-10-13T20:54:07.834Z,2.67
2022-10-13T20:56:37.397Z,2.40
2022-10-13T20:59:11.246Z,2.78
2022-10-13T21:01:41.074Z,2.80
2022-10-13T21:04:07.978Z,2.38
2022-10-13T21:06:37.621Z,2.90
2022-10-13T21:09:06.317Z,2.50
2022-10-13T21:11:36.006Z,3.03
2022-10-13T21:14:06.696Z,2.90
2022-10-13T21:16:36.895Z,2.90
2022-10-13T21:19:06.287Z,2.72
2022-10-13T21:21:36.423Z,2.70
2022-10-13T21:24:06.308Z,3.20
2022-10-13T21:26:34.850Z,2.70
2022-10-13T21:29:04.226Z,3.22
2022-10-13T21:31:33.284Z,3.35
2022-10-13T21:34:00.782Z,2.92
2022-10-13T21:36:35.150Z,3.33
2022-10-13T21:39:09.854Z,3.25
2022-10-13T21:41:36.816Z,3.10
2022-10-13T21:44:04.007Z,3.08
2022-10-13T21:46:33.316Z,3.05
2022-10-13T21:49:07.731Z,3.25
2022-10-13T21:51:37.813Z,2.95
2022-10-13T21:54:11.411Z,3.55
2022-10-13T21:56:39.591Z,3.38
2022-10-13T21:59:10.197Z,2.70
2022-10-13T22:01:39.712Z,3.20
2022-10-13T22:04:06.712Z,2.90
2022-10-13T22:06:34.351Z,3.00
2022-10-13T22:09:04.218Z,3.13
2022-10-13T22:11:36.096Z,3.25
2022-10-13T22:14:03.394Z,2.63
2022-10-13T22:16:40.657Z,3.40
2022-10-13T22:19:07.936Z,3.03
2022-10-13T22:21:41.071Z,3.10
2022-10-13T22:24:11.888Z,3.28
2022-10-13T22:26:41.238Z,3.35
2022-10-13T22:29:15.598Z,3.40
2022-10-13T22:31:42.513Z,3.15
2022-10-13T22:34:10.850Z,3.08
2022-10-13T22:36:41.023Z,3.00
2022-10-13T22:39:10.892Z,3.45
2022-10-13T22:41:40.111Z,4.15
2022-10-13T22:44:11.533Z,4.00
2022-10-13T22:46:39.507Z,3.92
2022-10-13T22:49:11.084Z,3.15
2022-10-13T22:54:10.128Z,3.03
2022-10-13T22:56:36.974Z,3.80
2022-10-13T22:59:08.458Z,3.20
2022-10-13T23:04:05.035Z,3.20
2022-10-13T23:06:35.030Z,3.50
2022-10-13T23:09:04.777Z,3.20
2022-10-13T23:11:31.687Z,3.10
2022-10-13T23:13:58.687Z,2.88
2022-10-13T23:16:26.597Z,3.10
2022-10-13T23:18:54.264Z,3.33
2022-10-13T23:21:28.504Z,3.42
2022-10-13T23:23:58.544Z,3.15
2022-10-13T23:26:28.582Z,3.22
2022-10-13T23:28:59.214Z,4.47
2022-10-13T23:31:27.699Z,3.80
2022-10-13T23:33:54.720Z,3.50
2022-10-13T23:36:30.208Z,3.08
2022-10-13T23:39:05.465Z,2.42
2022-10-13T23:41:33.057Z,2.90
2022-10-13T23:44:02.574Z,2.88
2022-10-13T23:46:29.738Z,3.15
2022-10-13T23:48:57.105Z,2.70
2022-10-13T23:51:25.618Z,3.40
2022-10-13T23:53:55.637Z,3.15
2022-10-13T23:56:25.249Z,3.17
2022-10-13T23:58:52.110Z,2.80
